createdAt,value
2023-04-21T00:01:03.747Z,656.47
2023-04-21T00:03:33.996Z,647.80
2023-04-21T00:06:06.146Z,652.63
2023-04-21T00:08:38.119Z,661.75
2023-04-21T00:11:06.584Z,655.13
2023-04-21T00:13:35.213Z,658.35
2023-04-21T00:16:03.783Z,661.25
2023-04-21T00:18:32.230Z,663.63
2023-04-21T00:21:00.632Z,667.70
2023-04-21T00:23:30.440Z,661.90
2023-04-21T00:25:59.417Z,634.88
2023-04-21T00:28:27.764Z,648.67
2023-04-21T00:30:56.521Z,634.97
2023-04-21T00:33:25.203Z,603.40
2023-04-21T00:35:54.438Z,609.83
2023-04-21T00:38:22.811Z,647.28
2023-04-21T00:40:52.542Z,645.53
2023-04-21T00:43:20.895Z,630.70
2023-04-21T00:45:49.348Z,630.78
2023-04-21T00:48:17.709Z,648.67
2023-04-21T00:50:47.025Z,654.58
2023-04-21T00:53:16.456Z,640.90
2023-04-21T00:55:44.888Z,633.80
2023-04-21T00:58:14.647Z,645.75
2023-04-21T01:00:44.535Z,616.10
2023-04-21T01:03:13.314Z,644.20
2023-04-21T01:05:42.514Z,633.00
2023-04-21T01:08:11.104Z,628.17
2023-04-21T01:10:39.557Z,614.03
2023-04-21T01:13:07.966Z,617.65
2023-04-21T01:15:37.676Z,620.65
2023-04-21T01:18:06.159Z,637.30
2023-04-21T01:20:34.611Z,654.42
2023-04-21T01:23:04.614Z,631.55
2023-04-21T01:25:33.233Z,623.60
2023-04-21T01:28:01.553Z,640.90
2023-04-21T01:30:30.145Z,645.38
2023-04-21T01:33:00.234Z,630.55
2023-04-21T01:35:28.746Z,647.40
2023-04-21T01:37:57.135Z,620.70
2023-04-21T01:40:26.846Z,652.20
2023-04-21T01:42:55.665Z,622.13
2023-04-21T01:45:24.013Z,632.03
2023-04-21T01:47:52.432Z,630.65
2023-04-21T01:50:21.170Z,654.28
2023-04-21T01:52:49.539Z,644.90
2023-04-21T01:55:18.172Z,662.22
2023-04-21T01:57:47.882Z,645.67
2023-04-21T02:00:17.007Z,652.10
2023-04-21T02:02:45.490Z,620.35
2023-04-21T02:05:13.820Z,644.72
2023-04-21T02:07:42.187Z,631.22
2023-04-21T02:10:11.310Z,620.97
2023-04-21T02:12:39.697Z,643.88
2023-04-21T02:15:10.782Z,640.97
2023-04-21T02:17:41.104Z,655.10
2023-04-21T02:20:12.060Z,644.10
2023-04-21T02:22:40.595Z,655.78
2023-04-21T02:25:09.570Z,654.80
2023-04-21T02:27:37.924Z,650.90
2023-04-21T02:30:07.863Z,646.13
2023-04-21T02:32:38.016Z,648.10
2023-04-21T02:35:07.115Z,654.05
2023-04-21T02:37:35.691Z,662.33
2023-04-21T02:40:05.404Z,631.58
2023-04-21T02:42:34.977Z,637.63
2023-04-21T02:45:03.341Z,652.13
2023-04-21T02:47:31.691Z,666.42
2023-04-21T02:50:01.410Z,634.05
2023-04-21T02:52:29.777Z,629.72
2023-04-21T02:54:58.132Z,633.47
2023-04-21T02:57:26.467Z,627.67
2023-04-21T02:59:54.835Z,634.40
2023-04-21T03:02:23.274Z,644.63
2023-04-21T03:04:51.868Z,649.28
2023-04-21T03:07:21.614Z,653.67
2023-04-21T03:09:50.063Z,651.35
2023-04-21T03:12:18.377Z,664.30
2023-04-21T03:14:46.799Z,664.60
2023-04-21T03:17:15.164Z,673.20
2023-04-21T03:19:43.815Z,679.90
2023-04-21T03:22:12.184Z,656.78
2023-04-21T03:24:41.905Z,664.53
2023-04-21T03:27:11.129Z,661.58
2023-04-21T03:29:39.656Z,646.88
2023-04-21T03:32:08.067Z,641.72
2023-04-21T03:34:36.621Z,643.53
2023-04-21T03:37:05.093Z,655.05
2023-04-21T03:39:33.408Z,623.15
2023-04-21T03:42:04.858Z,612.83
2023-04-21T03:44:33.242Z,622.25
2023-04-21T03:47:03.364Z,642.03
2023-04-21T03:49:31.735Z,657.80
2023-04-21T03:52:00.076Z,757.65
2023-04-21T03:54:28.503Z,657.67
2023-04-21T03:56:56.871Z,633.17
2023-04-21T03:59:26.589Z,625.05
2023-04-21T04:01:54.921Z,647.00
2023-04-21T04:04:23.515Z,650.95
2023-04-21T04:06:52.323Z,641.75
2023-04-21T04:09:20.906Z,652.75
2023-04-21T04:11:56.091Z,632.10
2023-04-21T04:14:26.109Z,665.92
2023-04-21T04:16:56.420Z,643.15
2023-04-21T04:19:32.551Z,700.30
2023-04-21T04:22:01.336Z,634.22
2023-04-21T04:24:31.057Z,611.63
2023-04-21T04:27:00.088Z,640.50
2023-04-21T04:29:29.816Z,663.33
2023-04-21T04:32:01.019Z,636.95
2023-04-21T04:34:29.413Z,652.30
2023-04-21T04:36:58.625Z,647.03
2023-04-21T04:39:26.957Z,674.80
2023-04-21T04:41:55.308Z,656.97
2023-04-21T04:44:23.653Z,644.65
2023-04-21T04:46:54.186Z,611.88
2023-04-21T04:49:24.270Z,636.53
2023-04-21T04:51:53.023Z,639.40
2023-04-21T04:54:21.636Z,632.22
2023-04-21T04:56:50.434Z,632.25
2023-04-21T04:59:19.035Z,702.30
2023-04-21T05:01:47.388Z,661.40
2023-04-21T05:04:17.672Z,693.38
2023-04-21T05:06:46.286Z,615.88
2023-04-21T05:09:14.623Z,623.33
2023-04-21T05:11:42.994Z,670.30
2023-04-21T05:14:11.336Z,638.20
2023-04-21T05:16:39.879Z,649.88
2023-04-21T05:19:08.279Z,618.75
2023-04-21T05:21:38.014Z,647.35
2023-04-21T05:24:06.501Z,640.75
2023-04-21T05:26:34.922Z,604.85
2023-04-21T05:29:03.256Z,603.08
2023-04-21T05:31:31.723Z,581.83
2023-04-21T05:34:00.072Z,590.58
2023-04-21T05:36:30.303Z,594.42
2023-04-21T05:39:00.008Z,590.80
2023-04-21T05:41:28.374Z,611.13
2023-04-21T05:43:56.733Z,743.28
2023-04-21T05:46:25.146Z,593.50
2023-04-21T05:48:53.527Z,633.80
2023-04-21T05:51:21.937Z,617.67
2023-04-21T05:53:50.363Z,635.17
2023-04-21T05:56:20.197Z,720.75
2023-04-21T05:58:48.703Z,642.47
2023-04-21T06:01:17.047Z,552.75
2023-04-21T06:03:45.554Z,547.47
2023-04-21T06:06:14.991Z,527.08
2023-04-21T06:08:43.365Z,579.40
2023-04-21T06:11:11.825Z,592.95
2023-04-21T06:13:43.477Z,665.90
2023-04-21T06:16:12.012Z,643.33
2023-04-21T06:18:40.457Z,557.35
2023-04-21T06:21:08.856Z,525.80
2023-04-21T06:23:37.158Z,583.65
2023-04-21T06:26:07.256Z,547.67
2023-04-21T06:28:36.693Z,418.77
2023-04-21T06:31:08.977Z,406.10
2023-04-21T06:33:37.833Z,428.50
2023-04-21T06:36:07.069Z,380.15
2023-04-21T06:38:35.450Z,466.10
2023-04-21T06:41:04.564Z,488.80
2023-04-21T06:43:33.325Z,462.85
2023-04-21T06:46:01.741Z,410.85
2023-04-21T06:48:31.773Z,584.38
2023-04-21T06:51:00.546Z,478.20
2023-04-21T06:53:28.944Z,422.75
2023-04-21T06:55:57.332Z,377.02
2023-04-21T06:58:25.672Z,408.75
2023-04-21T07:00:54.075Z,386.20
2023-04-21T07:03:22.523Z,387.15
2023-04-21T07:05:52.359Z,399.92
2023-04-21T07:08:20.688Z,460.35
2023-04-21T07:10:49.017Z,415.42
2023-04-21T07:13:17.758Z,489.42
2023-04-21T07:15:46.368Z,426.10
2023-04-21T07:18:14.993Z,540.92
2023-04-21T07:20:43.402Z,399.52
2023-04-21T07:23:13.111Z,426.67
2023-04-21T07:25:41.513Z,490.15
2023-04-21T07:28:10.970Z,589.90
2023-04-21T07:30:39.538Z,556.30
2023-04-21T07:33:08.048Z,388.02
2023-04-21T07:35:36.626Z,380.40
2023-04-21T07:38:05.232Z,446.13
2023-04-21T07:40:36.174Z,437.25
2023-04-21T07:43:04.557Z,454.17
2023-04-21T07:45:32.891Z,443.08
2023-04-21T07:48:01.536Z,476.90
2023-04-21T07:50:30.211Z,506.70
2023-04-21T07:52:58.597Z,513.55
2023-04-21T07:55:26.953Z,555.38
2023-04-21T07:57:56.895Z,586.35
2023-04-21T08:00:25.418Z,500.65
2023-04-21T08:02:54.284Z,592.90
2023-04-21T08:05:22.831Z,652.78
2023-04-21T08:07:51.252Z,575.10
2023-04-21T08:10:20.247Z,464.88
2023-04-21T08:12:48.637Z,467.33
2023-04-21T08:15:18.422Z,575.78
2023-04-21T08:17:46.972Z,471.38
2023-04-21T08:20:15.537Z,465.35
2023-04-21T08:22:44.906Z,469.17
2023-04-21T08:25:14.971Z,577.38
2023-04-21T08:27:43.835Z,490.23
2023-04-21T08:30:13.168Z,469.58
2023-04-21T08:32:43.177Z,438.73
2023-04-21T08:35:11.910Z,428.70
2023-04-21T08:37:40.688Z,561.33
2023-04-21T08:40:09.915Z,484.45
2023-04-21T08:42:39.924Z,585.55
2023-04-21T08:45:09.696Z,471.35
2023-04-21T08:47:39.960Z,457.25
2023-04-21T08:50:14.533Z,422.10
2023-04-21T08:55:12.960Z,534.28
2023-04-21T08:57:41.321Z,446.63
2023-04-21T09:00:10.996Z,460.35
2023-04-21T09:03:00.700Z,445.52
2023-04-21T09:05:32.838Z,426.83
2023-04-21T09:08:10.398Z,462.42
2023-04-21T09:10:46.363Z,504.83
2023-04-21T09:13:15.641Z,411.77
2023-04-21T09:15:49.037Z,427.63
2023-04-21T09:18:18.952Z,487.17
2023-04-21T09:20:50.800Z,589.78
2023-04-21T09:23:19.460Z,614.53
2023-04-21T09:25:47.798Z,621.55
2023-04-21T09:28:16.535Z,516.53
2023-04-21T09:30:45.163Z,485.98
2023-04-21T09:33:27.981Z,488.98
2023-04-21T09:36:03.499Z,492.05
2023-04-21T09:38:31.904Z,667.72
2023-04-21T09:41:00.637Z,488.60
2023-04-21T09:43:29.355Z,703.10
2023-04-21T09:45:57.845Z,498.10
2023-04-21T09:48:28.650Z,574.80
2023-04-21T09:53:30.559Z,491.67
2023-04-21T09:56:00.496Z,469.60
2023-04-21T09:58:30.109Z,588.13
2023-04-21T10:00:59.245Z,506.45
2023-04-21T10:03:30.113Z,653.22
2023-04-21T10:06:00.199Z,547.53
2023-04-21T10:08:29.122Z,509.17
2023-04-21T10:10:57.616Z,602.40
2023-04-21T10:13:26.124Z,517.30
2023-04-21T10:16:04.005Z,453.00
2023-04-21T10:18:32.711Z,524.53
2023-04-21T10:21:06.126Z,623.20
2023-04-21T10:23:38.631Z,523.55
2023-04-21T10:26:09.972Z,588.03
2023-04-21T10:28:45.339Z,516.60
2023-04-21T10:31:23.157Z,510.55
2023-04-21T10:34:13.693Z,651.50
2023-04-21T10:36:53.021Z,526.85
2023-04-21T10:39:28.238Z,691.08
2023-04-21T10:41:58.870Z,506.35
2023-04-21T10:44:27.658Z,600.97
2023-04-21T10:46:56.466Z,528.83
2023-04-21T10:49:26.765Z,695.05
2023-04-21T10:52:12.180Z,511.70
2023-04-21T10:54:45.699Z,581.80
2023-04-21T10:57:17.129Z,529.67
2023-04-21T10:59:46.330Z,551.72
2023-04-21T11:02:15.855Z,542.35
2023-04-21T11:04:48.690Z,519.35
2023-04-21T11:07:19.678Z,619.20
2023-04-21T11:09:50.185Z,606.63
2023-04-21T11:12:19.418Z,613.47
2023-04-21T11:14:49.400Z,605.58
2023-04-21T11:17:19.287Z,638.13
2023-04-21T11:19:48.133Z,691.85
2023-04-21T11:22:19.471Z,575.83
2023-04-21T11:24:49.146Z,566.35
2023-04-21T11:27:17.904Z,539.65
2023-04-21T11:29:47.257Z,545.75
2023-04-21T11:32:16.437Z,552.65
2023-04-21T11:34:44.944Z,602.20
2023-04-21T11:37:22.508Z,618.15
2023-04-21T11:39:50.815Z,629.03
2023-04-21T11:42:23.151Z,669.15
2023-04-21T11:44:51.549Z,636.67
2023-04-21T11:47:21.499Z,604.58
2023-04-21T11:49:54.399Z,694.95
2023-04-21T11:52:25.520Z,623.55
2023-04-21T11:54:57.861Z,730.88
2023-04-21T11:57:26.813Z,591.60
2023-04-21T11:59:55.657Z,586.00
2023-04-21T12:02:26.565Z,631.92
2023-04-21T12:05:03.666Z,741.92
2023-04-21T12:07:35.352Z,623.40
2023-04-21T12:10:09.743Z,650.42
2023-04-21T12:15:07.513Z,558.10
2023-04-21T12:17:40.128Z,555.65
2023-04-21T12:20:10.141Z,769.13
2023-04-21T12:22:39.982Z,744.20
2023-04-21T12:25:09.223Z,665.50
2023-04-21T12:27:37.631Z,666.67
2023-04-21T12:30:07.057Z,639.97
2023-04-21T12:32:35.448Z,628.25
2023-04-21T12:35:05.285Z,529.10
2023-04-21T12:37:33.691Z,548.60
2023-04-21T12:40:03.492Z,595.95
2023-04-21T12:42:31.959Z,472.95
2023-04-21T12:45:00.384Z,651.95
2023-04-21T12:47:28.785Z,571.30
2023-04-21T12:49:57.386Z,569.90
2023-04-21T12:52:26.183Z,528.08
2023-04-21T12:54:54.578Z,532.17
2023-04-21T12:57:24.264Z,528.90
2023-04-21T12:59:52.596Z,525.50
2023-04-21T13:02:21.145Z,535.63
2023-04-21T13:04:49.744Z,421.63
2023-04-21T13:07:21.237Z,630.55
2023-04-21T13:09:49.622Z,547.35
2023-04-21T13:12:18.025Z,490.15
2023-04-21T13:14:47.754Z,465.95
2023-04-21T13:17:17.232Z,479.80
2023-04-21T13:19:45.752Z,540.05
2023-04-21T13:22:14.321Z,479.48
2023-04-21T13:24:42.660Z,586.28
2023-04-21T13:27:11.401Z,444.25
2023-04-21T13:29:42.764Z,415.55
2023-04-21T13:32:12.420Z,418.67
2023-04-21T13:34:40.889Z,377.60
2023-04-21T13:37:12.456Z,406.30
2023-04-21T13:39:40.987Z,478.13
2023-04-21T13:42:09.376Z,463.40
2023-04-21T13:44:37.839Z,441.92
2023-04-21T13:47:08.853Z,484.73
2023-04-21T13:49:42.630Z,413.65
2023-04-21T13:52:11.321Z,541.85
2023-04-21T13:54:39.795Z,445.15
2023-04-21T13:57:08.787Z,451.63
2023-04-21T13:59:37.390Z,451.15
2023-04-21T14:02:05.812Z,430.02
2023-04-21T14:04:34.405Z,460.20
2023-04-21T14:07:04.750Z,436.70
2023-04-21T14:09:33.470Z,371.75
2023-04-21T14:12:03.267Z,521.58
2023-04-21T14:14:38.369Z,446.15
2023-04-21T14:17:07.775Z,436.90
2023-04-21T14:19:36.875Z,411.23
2023-04-21T14:22:06.907Z,369.02
2023-04-21T14:24:35.287Z,518.75
2023-04-21T14:27:03.955Z,425.75
2023-04-21T14:29:32.542Z,473.88
2023-04-21T14:32:01.572Z,377.27
2023-04-21T14:34:30.066Z,451.15
2023-04-21T14:36:59.700Z,527.10
2023-04-21T14:39:29.410Z,501.65
2023-04-21T14:41:57.822Z,368.92
2023-04-21T14:44:26.193Z,389.25
2023-04-21T14:47:08.361Z,427.10
2023-04-21T14:49:38.685Z,371.70
2023-04-21T14:52:07.283Z,400.85
2023-04-21T14:54:37.141Z,436.70
2023-04-21T14:57:17.823Z,528.13
2023-04-21T14:59:49.333Z,459.33
2023-04-21T15:02:17.950Z,494.58
2023-04-21T15:04:46.513Z,452.05
2023-04-21T15:07:17.899Z,479.63
2023-04-21T15:09:52.109Z,449.73
2023-04-21T15:12:20.495Z,418.65
2023-04-21T15:14:49.068Z,531.75
2023-04-21T15:17:17.456Z,508.13
2023-04-21T15:19:45.786Z,488.70
2023-04-21T15:22:15.190Z,496.55
2023-04-21T15:24:43.835Z,603.75
2023-04-21T15:27:13.554Z,503.27
2023-04-21T15:29:42.115Z,522.03
2023-04-21T15:32:10.749Z,447.33
2023-04-21T15:34:39.075Z,507.38
2023-04-21T15:37:07.460Z,615.45
2023-04-21T15:39:35.985Z,504.48
2023-04-21T15:42:04.966Z,572.30
2023-04-21T15:44:34.924Z,504.17
2023-04-21T15:47:03.438Z,476.23
2023-04-21T15:49:31.952Z,628.13
2023-04-21T15:52:00.484Z,528.83
2023-04-21T15:54:28.991Z,563.22
2023-04-21T15:56:57.625Z,548.78
2023-04-21T15:59:26.279Z,636.58
2023-04-21T16:01:56.872Z,533.45
2023-04-21T16:04:25.808Z,562.65
2023-04-21T16:06:54.287Z,487.65
2023-04-21T16:09:23.181Z,690.03
2023-04-21T16:11:51.869Z,494.02
2023-04-21T16:14:20.434Z,501.00
2023-04-21T16:16:48.827Z,486.48
2023-04-21T16:19:18.766Z,621.83
2023-04-21T16:21:47.196Z,567.90
2023-04-21T16:24:15.613Z,522.42
2023-04-21T16:26:44.050Z,575.20
2023-04-21T16:29:12.669Z,532.95
2023-04-21T16:31:41.121Z,589.17
2023-04-21T16:34:09.614Z,604.95
2023-04-21T16:36:39.663Z,572.63
2023-04-21T16:39:09.143Z,624.75
2023-04-21T16:41:37.526Z,642.20
2023-04-21T16:44:06.020Z,668.33
2023-04-21T16:46:34.611Z,660.97
2023-04-21T16:49:03.217Z,637.03
2023-04-21T16:51:31.994Z,600.70
2023-04-21T16:54:01.714Z,606.65
2023-04-21T16:56:29.988Z,648.08
2023-04-21T16:58:58.343Z,667.20
2023-04-21T17:01:44.653Z,849.60
2023-04-21T17:04:14.139Z,647.17
2023-04-21T17:06:42.707Z,670.35
2023-04-21T17:09:12.512Z,753.28
2023-04-21T17:11:40.953Z,651.33
2023-04-21T17:14:09.267Z,749.63
2023-04-21T17:16:37.727Z,648.67
2023-04-21T17:19:06.798Z,700.80
2023-04-21T17:21:35.883Z,664.28
2023-04-21T17:24:04.595Z,770.70
2023-04-21T17:26:34.803Z,702.95
2023-04-21T17:29:03.190Z,688.47
2023-04-21T17:31:32.939Z,681.35
2023-04-21T17:34:01.309Z,676.70
2023-04-21T17:36:30.606Z,683.90
2023-04-21T17:38:59.305Z,673.85
2023-04-21T17:41:28.153Z,745.25
2023-04-21T17:43:58.806Z,821.85
2023-04-21T17:46:27.543Z,707.40
2023-04-21T17:48:56.210Z,749.58
2023-04-21T17:51:24.779Z,682.28
2023-04-21T17:53:53.792Z,690.60
2023-04-21T17:56:22.446Z,593.60
2023-04-21T17:58:52.359Z,599.35
2023-04-21T18:01:22.376Z,672.83
2023-04-21T18:03:53.728Z,542.10
2023-04-21T18:06:22.949Z,525.20
2023-04-21T18:08:51.998Z,500.02
2023-04-21T18:11:20.576Z,523.55
2023-04-21T18:13:48.992Z,488.75
2023-04-21T18:16:17.508Z,492.73
2023-04-21T18:18:47.749Z,603.55
2023-04-21T18:21:16.301Z,469.80
2023-04-21T18:23:44.908Z,522.05
2023-04-21T18:26:13.344Z,578.72
2023-04-21T18:28:41.711Z,566.15
2023-04-21T18:31:10.702Z,547.75
2023-04-21T18:33:39.270Z,569.63
2023-04-21T18:36:09.472Z,532.35
2023-04-21T18:38:37.864Z,767.78
2023-04-21T18:41:06.506Z,591.85
2023-04-21T18:43:34.908Z,579.47
2023-04-21T18:46:03.288Z,595.25
2023-04-21T18:48:31.768Z,623.25
2023-04-21T18:51:00.307Z,583.95
2023-04-21T18:53:30.088Z,563.30
2023-04-21T18:55:58.476Z,554.80
2023-04-21T18:58:26.846Z,594.05
2023-04-21T19:00:55.925Z,662.22
2023-04-21T19:03:25.140Z,612.83
2023-04-21T19:05:53.685Z,616.47
2023-04-21T19:08:38.309Z,546.47
2023-04-21T19:11:12.293Z,529.45
2023-04-21T19:13:40.780Z,587.25
2023-04-21T19:16:11.293Z,632.80
2023-04-21T19:18:39.937Z,604.47
2023-04-21T19:21:12.694Z,667.20
2023-04-21T19:23:41.646Z,638.00
2023-04-21T19:26:11.952Z,589.17
2023-04-21T19:28:41.111Z,570.03
2023-04-21T19:31:09.614Z,578.50
2023-04-21T19:33:37.969Z,588.30
2023-04-21T19:36:07.454Z,613.60
2023-04-21T19:38:36.182Z,554.30
2023-04-21T19:41:04.536Z,519.80
2023-04-21T19:43:34.230Z,534.97
2023-04-21T19:46:02.664Z,579.50
2023-04-21T19:48:31.365Z,515.83
2023-04-21T19:50:59.861Z,585.47
2023-04-21T19:53:28.213Z,705.97
2023-04-21T19:55:56.669Z,602.10
2023-04-21T19:58:38.803Z,578.25
2023-04-21T20:01:10.685Z,496.47
2023-04-21T20:03:39.331Z,538.47
2023-04-21T20:06:08.061Z,569.80
2023-04-21T20:08:36.889Z,542.17
2023-04-21T20:11:05.248Z,574.28
2023-04-21T20:13:33.602Z,555.75
2023-04-21T20:16:02.090Z,558.72
2023-04-21T20:18:31.806Z,552.72
2023-04-21T20:21:00.289Z,558.58
2023-04-21T20:23:29.050Z,516.25
2023-04-21T20:25:58.002Z,577.60
2023-04-21T20:28:27.571Z,588.83
2023-04-21T20:30:56.967Z,545.53
2023-04-21T20:33:25.475Z,642.20
2023-04-21T20:35:55.560Z,627.45
2023-04-21T20:38:24.606Z,584.53
2023-04-21T20:40:53.856Z,587.70
2023-04-21T20:43:22.345Z,554.88
2023-04-21T20:45:50.747Z,585.00
2023-04-21T20:48:19.046Z,582.50
2023-04-21T20:50:49.839Z,578.13
2023-04-21T20:53:21.147Z,566.70
2023-04-21T20:55:50.331Z,497.40
2023-04-21T20:58:18.852Z,551.13
2023-04-21T21:00:48.075Z,653.97
2023-04-21T21:03:17.376Z,634.53
2023-04-21T21:05:45.864Z,623.28
2023-04-21T21:08:15.081Z,580.42
2023-04-21T21:10:44.961Z,546.22
2023-04-21T21:13:13.414Z,545.38
2023-04-21T21:15:42.138Z,485.08
2023-04-21T21:18:10.556Z,470.95
2023-04-21T21:20:39.011Z,523.42
2023-04-21T21:23:07.574Z,484.23
2023-04-21T21:25:36.297Z,511.02
2023-04-21T21:28:06.394Z,564.08
2023-04-21T21:30:34.737Z,529.20
2023-04-21T21:33:03.101Z,476.40
2023-04-21T21:35:31.533Z,567.42
2023-04-21T21:37:59.967Z,608.42
2023-04-21T21:40:28.445Z,505.65
2023-04-21T21:42:56.755Z,486.73
2023-04-21T21:45:26.557Z,530.10
2023-04-21T21:47:54.947Z,524.55
2023-04-21T21:50:23.241Z,538.97
2023-04-21T21:52:51.678Z,509.50
2023-04-21T21:55:20.331Z,533.25
2023-04-21T21:57:48.871Z,577.53
2023-04-21T22:00:18.675Z,596.55
2023-04-21T22:02:48.531Z,619.42
2023-04-21T22:05:17.246Z,544.20
2023-04-21T22:07:45.957Z,545.92
2023-04-21T22:10:14.402Z,501.17
2023-04-21T22:12:42.788Z,513.90
2023-04-21T22:15:12.233Z,495.50
2023-04-21T22:17:41.081Z,511.42
2023-04-21T22:20:12.939Z,446.85
2023-04-21T22:22:41.365Z,499.45
2023-04-21T22:25:10.798Z,511.38
2023-04-21T22:27:39.746Z,502.08
2023-04-21T22:30:09.185Z,515.53
2023-04-21T22:32:37.595Z,464.05
2023-04-21T22:35:06.610Z,483.25
2023-04-21T22:37:36.861Z,585.90
2023-04-21T22:40:06.023Z,449.80
2023-04-21T22:42:34.977Z,467.75
2023-04-21T22:45:05.168Z,511.60
2023-04-21T22:47:33.806Z,516.40
2023-04-21T22:50:02.183Z,565.78
2023-04-21T22:52:30.681Z,498.83
2023-04-21T22:55:00.413Z,534.67
2023-04-21T22:57:29.069Z,574.58
2023-04-21T22:59:57.395Z,568.35
2023-04-21T23:02:25.978Z,561.05
2023-04-21T23:04:55.072Z,608.05
2023-04-21T23:07:23.433Z,581.85
2023-04-21T23:09:52.128Z,592.55
2023-04-21T23:12:21.897Z,594.35
2023-04-21T23:14:50.268Z,599.30
2023-04-21T23:17:18.611Z,598.95
2023-04-21T23:19:46.906Z,585.92
2023-04-21T23:22:15.314Z,578.80
2023-04-21T23:24:43.604Z,602.55
2023-04-21T23:27:11.986Z,568.45
2023-04-21T23:29:41.844Z,591.60
2023-04-21T23:32:10.380Z,590.70
2023-04-21T23:34:38.756Z,578.20
2023-04-21T23:37:07.117Z,549.28
2023-04-21T23:39:35.635Z,519.38
2023-04-21T23:42:04.677Z,556.38
2023-04-21T23:44:33.337Z,543.63
2023-04-21T23:47:03.787Z,508.63
2023-04-21T23:49:32.760Z,565.70
2023-04-21T23:52:01.169Z,545.00
2023-04-21T23:54:29.720Z,536.70
2023-04-21T23:56:58.327Z,494.00
2023-04-21T23:59:26.783Z,498.63
